De Xin Hai — BQBP — position and weather

sailwx.info

Track history (hours):
 
Tides and Currents Weather Stations Pressure Air Temp Water Temp Dewpoint Dewpoint Depression Visibility Wind Speed Wind Dir Waves Ship Positions

De Xin Hai

Last reported at 2014-Sep-13 02:12 UTC. Time now 2014-Sep-23 00:19 UTC.
Position N 29°57' W 090°04'.
Warning: this ship's position is 9 days out of date.

Length 225 m; draft 6.9 m.

Type: Cargo ship. MMSI: 367344200.

Date/timePositionNaut miles runAvg speedWind from/ knotsBaromVisibWave heightAir tempDewpointWater temp
2014-Sep-13 02:12N 29°57' W 090°04'7 7.5
2014-Sep-13 01:18N 29°56' W 090°11'11 9.9
2014-Sep-13 00:12N 29°58' W 090°24'610.2
2014-Sep-12 23:33N 30°03' W 090°29'1 0.9
2014-Sep-12 22:26N 30°03' W 090°30'0 0.0
2014-Sep-12 12:29N 30°03' W 090°30'0 0.0
2014-Sep-12 11:32N 30°03' W 090°30'0 0.0
2014-Sep-12 10:29N 30°03' W 090°30'0 0.0
2014-Sep-12 09:32N 30°03' W 090°30'0 0.0
2014-Sep-12 08:32N 30°03' W 090°30'0 0.0
2014-Sep-12 07:32N 30°03' W 090°30'0 0.0
2014-Sep-12 06:32N 30°03' W 090°30'0 0.0
2014-Sep-12 05:32N 30°03' W 090°30'0 0.0
2014-Sep-12 04:32N 30°03' W 090°30'0 0.0
2014-Sep-12 03:32N 30°03' W 090°30'0 0.0
2014-Sep-12 02:32N 30°03' W 090°30'0 0.0
2014-Sep-12 01:32N 30°03' W 090°30'0 0.0
2014-Sep-12 00:32N 30°03' W 090°30'0 0.0
2014-Sep-11 23:32N 30°03' W 090°30'0 0.0
2014-Sep-11 22:32N 30°03' W 090°30'0 0.0
2014-Sep-11 12:32N 30°03' W 090°30'0 0.0
2014-Sep-11 11:32N 30°03' W 090°30'0 0.0
2014-Sep-11 10:32N 30°03' W 090°30'0 0.0
2014-Sep-11 09:32N 30°03' W 090°30'0 0.0
2014-Sep-11 08:32N 30°03' W 090°30'0 0.0
2014-Sep-11 07:32N 30°03' W 090°30'0 0.0
2014-Sep-11 06:29N 30°03' W 090°30'0 0.0
2014-Sep-11 05:32N 30°03' W 090°30'0 0.0
2014-Sep-11 04:29N 30°03' W 090°30'0 0.0
2014-Sep-11 03:32N 30°03' W 090°30'0 0.0
2014-Sep-11 02:32N 30°03' W 090°30'0 0.0
2014-Sep-11 01:32N 30°03' W 090°30'0 0.0
2014-Sep-11 00:32N 30°03' W 090°30'0 0.0
2014-Sep-10 23:32N 30°03' W 090°30'0 0.0
2014-Sep-10 22:32N 30°03' W 090°30'0 0.0
2014-Sep-10 12:32N 30°03' W 090°30'0 0.0
2014-Sep-10 11:32N 30°03' W 090°30'0 0.0
2014-Sep-10 10:32N 30°03' W 090°30'0 0.0
2014-Sep-10 09:32N 30°03' W 090°30'0 0.0
2014-Sep-10 08:32N 30°03' W 090°30'0 0.0
2014-Sep-10 07:32N 30°03' W 090°30'0 0.0
2014-Sep-10 06:32N 30°03' W 090°30'0 0.0
2014-Sep-10 05:32N 30°03' W 090°30'0 0.0
2014-Sep-10 04:32N 30°03' W 090°30'0 0.0
2014-Sep-10 03:29N 30°03' W 090°30'0 0.0
2014-Sep-10 02:32N 30°03' W 090°30'0 0.0
2014-Sep-10 01:32N 30°03' W 090°30'0 0.0
2014-Sep-10 00:32N 30°03' W 090°30'0 0.0
2014-Sep-09 23:32N 30°03' W 090°30'0 0.0
2014-Sep-09 22:32N 30°03' W 090°30'0 0.0
2014-Sep-09 12:32N 30°03' W 090°30'0 0.0
2014-Sep-09 11:32N 30°03' W 090°30'0 0.0
2014-Sep-09 10:26N 30°03' W 090°30'0 0.0
2014-Sep-09 09:26N 30°03' W 090°30'0 0.0
2014-Sep-09 08:29N 30°03' W 090°30'0 0.0
2014-Sep-09 07:32N 30°03' W 090°30'0 0.1
2014-Sep-09 06:33N 30°03' W 090°30'5 4.7
2014-Sep-09 05:30N 29°60' W 090°25'6 6.7
2014-Sep-09 04:33N 29°56' W 090°19'6 6.0
2014-Sep-09 03:29N 29°55' W 090°12'  
Track history (hours):
 
Tides and Currents Weather Stations Pressure Air Temp Water Temp Dewpoint Dewpoint Depression Visibility Wind Speed Wind Dir Waves Ship Positions

De Xin Hai

Last reported at 2014-Sep-13 02:12 UTC. Time now 2014-Sep-23 00:19 UTC.
Position N 29°57' W 090°04'.
Warning: this ship's position is 9 days out of date.

Length 225 m; draft 6.9 m.

Type: Cargo ship. MMSI: 367344200.

Date/timePositionNaut miles runAvg speedWind from/ knotsBaromVisibWave heightAir tempDewpointWater temp
2014-Sep-13 02:12N 29°57' W 090°04'7 7.5
2014-Sep-13 01:18N 29°56' W 090°11'11 9.9
2014-Sep-13 00:12N 29°58' W 090°24'610.2
2014-Sep-12 23:33N 30°03' W 090°29'1 0.9
2014-Sep-12 22:26N 30°03' W 090°30'0 0.0
2014-Sep-12 12:29N 30°03' W 090°30'0 0.0
2014-Sep-12 11:32N 30°03' W 090°30'0 0.0
2014-Sep-12 10:29N 30°03' W 090°30'0 0.0
2014-Sep-12 09:32N 30°03' W 090°30'0 0.0
2014-Sep-12 08:32N 30°03' W 090°30'0 0.0
2014-Sep-12 07:32N 30°03' W 090°30'0 0.0
2014-Sep-12 06:32N 30°03' W 090°30'0 0.0
2014-Sep-12 05:32N 30°03' W 090°30'0 0.0
2014-Sep-12 04:32N 30°03' W 090°30'0 0.0
2014-Sep-12 03:32N 30°03' W 090°30'0 0.0
2014-Sep-12 02:32N 30°03' W 090°30'0 0.0
2014-Sep-12 01:32N 30°03' W 090°30'0 0.0
2014-Sep-12 00:32N 30°03' W 090°30'0 0.0
2014-Sep-11 23:32N 30°03' W 090°30'0 0.0
2014-Sep-11 22:32N 30°03' W 090°30'0 0.0
2014-Sep-11 12:32N 30°03' W 090°30'0 0.0
2014-Sep-11 11:32N 30°03' W 090°30'0 0.0
2014-Sep-11 10:32N 30°03' W 090°30'0 0.0
2014-Sep-11 09:32N 30°03' W 090°30'0 0.0
2014-Sep-11 08:32N 30°03' W 090°30'0 0.0
2014-Sep-11 07:32N 30°03' W 090°30'0 0.0
2014-Sep-11 06:29N 30°03' W 090°30'0 0.0
2014-Sep-11 05:32N 30°03' W 090°30'0 0.0
2014-Sep-11 04:29N 30°03' W 090°30'0 0.0
2014-Sep-11 03:32N 30°03' W 090°30'0 0.0
2014-Sep-11 02:32N 30°03' W 090°30'0 0.0
2014-Sep-11 01:32N 30°03' W 090°30'0 0.0
2014-Sep-11 00:32N 30°03' W 090°30'0 0.0
2014-Sep-10 23:32N 30°03' W 090°30'0 0.0
2014-Sep-10 22:32N 30°03' W 090°30'0 0.0
2014-Sep-10 12:32N 30°03' W 090°30'0 0.0
2014-Sep-10 11:32N 30°03' W 090°30'0 0.0
2014-Sep-10 10:32N 30°03' W 090°30'0 0.0
2014-Sep-10 09:32N 30°03' W 090°30'0 0.0
2014-Sep-10 08:32N 30°03' W 090°30'0 0.0
2014-Sep-10 07:32N 30°03' W 090°30'0 0.0
2014-Sep-10 06:32N 30°03' W 090°30'0 0.0
2014-Sep-10 05:32N 30°03' W 090°30'0 0.0
2014-Sep-10 04:32N 30°03' W 090°30'0 0.0
2014-Sep-10 03:29N 30°03' W 090°30'0 0.0
2014-Sep-10 02:32N 30°03' W 090°30'0 0.0
2014-Sep-10 01:32N 30°03' W 090°30'0 0.0
2014-Sep-10 00:32N 30°03' W 090°30'0 0.0
2014-Sep-09 23:32N 30°03' W 090°30'0 0.0
2014-Sep-09 22:32N 30°03' W 090°30'0 0.0
2014-Sep-09 12:32N 30°03' W 090°30'0 0.0
2014-Sep-09 11:32N 30°03' W 090°30'0 0.0
2014-Sep-09 10:26N 30°03' W 090°30'0 0.0
2014-Sep-09 09:26N 30°03' W 090°30'0 0.0
2014-Sep-09 08:29N 30°03' W 090°30'0 0.0
2014-Sep-09 07:32N 30°03' W 090°30'0 0.1
2014-Sep-09 06:33N 30°03' W 090°30'5 4.7
2014-Sep-09 05:30N 29°60' W 090°25'6 6.7
2014-Sep-09 04:33N 29°56' W 090°19'6 6.0
2014-Sep-09 03:29N 29°55' W 090°12'  

Dump ship's entire track history